Fruitland, Washington
Current Conditions -  °F | °C
As of 6:53 AM on Thursday 30 Oct 2014 (Local Time) from KDEW Reporting Station
Overcast Overcast  
Wind Chill: 41°   Ceiling: 11000
Heat Index: 46°   Visibility: 10mi
Dew Point: 42°   Wind: 12mph
Humidity: 86%   Direction: 20°NNE
Pressure: 30.13"   Gusts: NA
Location:  48.07°N, 118.2°W
Report Text: KDEW 301353Z AUTO 02010KT 10SM FEW070 OVC110 08/06 A3013 RMK AO2 SLP211 T00780056
Loading
Personal Weather Stations






























Interactive Weather Map
Tropical Storm Tracking
New forecast layout! Learn more

10-Day Weather Forecast

Advertisements
Track Severe Weather on mobile